Cachoeira Alta Airport

BR-0039 · 戈亚斯州, 巴西

METAR BR-0039 · Cachoeira Alta Airport

26 二月 19:00 LT
1h
使用的METAR站距离机场267 km。
罗盘
风向 的 风向 350° Cachoeira Alta Airport 16/34
风: 4 kt, 2 beaufort

3 kt

2 kt
改变
0 ft 1.000 2.000 3.000 4.000 5.000
Cloud Cloud
FEW 3.000
Cloud Cloud
FEW 4.000
METAR SBAU 262200Z 35004KT 9999 FEW030 FEW040TCU 28/22 Q1012

METAR Cachoeira Alta Airport - BR-0039

Cachoeira Alta Airport是,巴西中的小机场。 该机场位于纬度-18,78720和经度-50,93650。 该机场有一条跑道: 16/34. 这个机场没有ICAO代码,我们使用BR-0039作为参考。 机场在Curitiba FIR中。

该航空气象观测是针对Araçatuba Airport在2024年2月26日 19:00, 当地时间进行的。

机场观察

风向为350°,速度为4 kt。

可见度为10 km 或者更多。

有几云在3.000 ft的高度 和 几云 高耸的积云在4.000 ft的高度。 没有观察到天花板。

温度和风寒是28 °C。 热指数为30。 露点为22 °C,相对湿度为70%。 海平面上的气压为1012 hPa (QNH)。

白天

今天,太阳从06:21升起,在18:52降落。 这适用于Cachoeira Alta Airport,世界夏令时可能有所不同。 当地时间与世界标准时间之间的时差为-3 小时。 当前,没有夏令时有效。

公司介绍

我们没有关于这个机场的公司信息。

体会

到Vliegles.nl去找飞行课程,跳伞和其他飞行体验。 浏览页面,了解Cachoeira Alta Airport附近所有可用的活动。 你也可以使用搜索功能来寻找你所在地附近的特定飞行课程、跳伞或其他飞行体验。

跑道

Id 标题 侧风 逆风 侧风 %
16/34 137°-317° 2 kt 3 kt 54 %

逆风成分最大的方向会被突出显示,并用于横风计算。 这并不一定意味着这个方向在使用。

乌云

3.000 ft FEW 几云
4.000 ft FEW 几云 高耸的积云

温度 & 天气

温度 28 °C
露点 22 °C
相对湿度 70%
热度指数 30 °C
Kp-index 1 (0-9)

白天

日出
06:17 (9:30)
中午
12:34
日落
18:51

小工具

你想在你的网站上有一个关于Cachoeira Alta Airport的当前航空天气(METAR)的小部件吗?

显示HTML代码
?>